Time;durP1;ratioP1;P1;durP2;ratioP2;P2;SDS_P1;SDS_P2;PMS_P1;PMS_P2;Temp;Humidity;BMP_temperature;BMP_pressure;BME280_temperature;BME280_humidity;BME280_pressure;Samples;Min_cycle;Max_cycle;Signal;HPM_P1;HPM_P2
2022/10/13 00:12:56;;;;;;;39.30;18.20;;;;;;;6.60;87.90;101395.94;641074;1289;140065;-81
2022/10/13 00:28:00;;;;;;;64.00;27.00;;;;;;;6.50;87.32;101388.80;641312;1287;140469;-80
2022/10/13 00:43:20;;;;;;;84.50;38.30;;;;;;;6.30;86.67;101392.67;641041;1294;1037719;-81
2022/10/13 00:58:30;;;;;;;68.60;31.10;;;;;;;6.25;87.28;101385.64;642707;1288;140592;-81
2022/10/13 01:13:55;;;;;;;54.30;26.60;;;;;;;6.09;86.89;101378.65;640996;1288;140416;-81
2022/10/13 01:29:34;;;;;;;48.20;22.30;;;;;;;5.94;87.09;101367.76;642603;1291;140870;-82
2022/10/13 01:44:44;;;;;;;43.10;21.60;;;;;;;5.75;86.44;101369.71;640536;1293;140389;-81
2022/10/13 01:59:47;;;;;;;60.80;29.40;;;;;;;5.65;86.68;101360.86;641742;1294;138922;-83
2022/10/13 02:14:54;;;;;;;59.60;28.50;;;;;;;5.66;87.25;101351.42;641537;1288;139466;-81
2022/10/13 02:29:57;;;;;;;60.00;29.20;;;;;;;5.72;87.83;101344.52;640050;1304;141893;-82
2022/10/13 02:45:05;;;;;;;58.90;27.80;;;;;;;5.79;87.35;101335.33;639898;1295;140461;-82
2022/10/13 03:00:08;;;;;;;53.80;27.40;;;;;;;5.82;87.52;101332.23;640630;1298;140263;-82
2022/10/13 03:15:11;;;;;;;45.30;23.40;;;;;;;6.01;88.35;101326.79;640335;1295;140041;-82
2022/10/13 03:30:14;;;;;;;47.80;23.60;;;;;;;6.24;88.54;101319.80;640242;1294;139949;-82
2022/10/13 03:45:18;;;;;;;55.90;23.90;;;;;;;6.46;89.20;101310.83;640000;1299;141842;-81
2022/10/13 04:00:21;;;;;;;44.80;21.30;;;;;;;6.71;89.63;101317.30;640242;1292;139577;-81
2022/10/13 04:15:24;;;;;;;46.00;20.40;;;;;;;6.86;90.82;101313.00;641394;1288;140108;-82
2022/10/13 04:30:28;;;;;;;42.70;20.40;;;;;;;7.05;91.03;101311.39;639947;1295;140496;-82
2022/10/13 04:45:31;;;;;;;42.90;20.30;;;;;;;7.18;92.30;101314.68;640768;1289;139743;-82
2022/10/13 05:00:34;;;;;;;70.40;34.40;;;;;;;7.33;92.37;101313.27;640651;1294;140877;-82
2022/10/13 05:15:38;;;;;;;62.00;28.10;;;;;;;7.52;93.17;101306.58;640953;1288;139088;-81
2022/10/13 05:30:41;;;;;;;74.30;33.80;;;;;;;7.68;93.83;101305.30;641174;1294;140673;-81
2022/10/13 05:45:45;;;;;;;120.20;47.00;;;;;;;7.88;94.88;101286.17;641501;1294;140750;-83
2022/10/13 06:00:48;;;;;;;116.50;47.20;;;;;;;8.14;95.64;101279.55;641248;1294;139445;-82
2022/10/13 06:15:51;;;;;;;96.70;40.80;;;;;;;8.47;96.74;101289.39;640442;1294;139668;-81
2022/10/13 06:30:56;;;;;;;86.40;38.00;;;;;;;8.91;97.69;101285.88;641055;1302;140554;-82
2022/10/13 06:46:00;;;;;;;64.10;29.90;;;;;;;9.43;98.62;101279.85;640702;1297;140038;-82
2022/10/13 07:01:04;;;;;;;30.50;14.20;;;;;;;10.05;99.87;101267.23;640549;1294;141121;-81
2022/10/13 07:16:08;;;;;;;118.00;41.70;;;;;;;11.26;100.00;101258.98;640744;1295;140560;-82
2022/10/13 07:31:15;;;;;;;27.90;13.80;;;;;;;12.83;99.35;101252.85;645976;1298;140487;-83
2022/10/13 07:46:18;;;;;;;15.60;8.70;;;;;;;14.06;93.56;101242.73;642421;1294;140755;-82
2022/10/13 08:01:22;;;;;;;15.90;5.40;;;;;;;14.79;89.43;101226.09;645651;1295;139929;-83
2022/10/13 08:16:27;;;;;;;9.10;4.70;;;;;;;15.79;83.36;101210.73;641325;1295;140910;-83
2022/10/13 08:31:31;;;;;;;12.80;6.50;;;;;;;16.27;76.01;101203.64;643158;1309;138893;-83
2022/10/13 08:46:53;;;;;;;9.70;5.10;;;;;;;16.80;71.89;101202.78;641212;1288;139891;-83
2022/10/13 09:01:56;;;;;;;11.50;5.00;;;;;;;17.20;66.99;101186.89;641876;1294;146580;-83
2022/10/13 09:17:17;;;;;;;12.70;5.20;;;;;;;16.96;64.15;101169.12;640948;1300;139176;-81
2022/10/13 09:32:22;;;;;;;10.20;4.60;;;;;;;17.56;62.20;101157.71;641824;1298;140307;-81
2022/10/13 09:47:29;;;;;;;14.10;5.20;;;;;;;17.84;60.58;101155.88;643464;1288;140032;-81
2022/10/13 10:02:51;;;;;;;11.90;4.80;;;;;;;18.34;59.51;101151.81;639449;1290;140042;-82
2022/10/13 10:18:00;;;;;;;12.50;5.10;;;;;;;18.12;57.83;101140.52;639984;1295;138484;-82
2022/10/13 10:33:20;;;;;;;15.60;5.30;;;;;;;18.16;57.08;101120.17;652048;1294;139571;-81
2022/10/13 10:48:34;;;;;;;10.50;4.20;;;;;;;18.32;56.17;101104.79;639316;1294;139492;-82
2022/10/13 11:03:47;;;;;;;13.60;5.90;;;;;;;19.09;55.24;101098.35;639960;1297;140180;-81
2022/10/13 11:18:54;;;;;;;8.30;4.20;;;;;;;19.30;54.21;101096.17;641807;1295;140425;-84
2022/10/13 11:34:01;;;;;;;15.50;7.00;;;;;;;18.61;54.83;101084.11;640972;1288;139975;-82
2022/10/13 11:49:19;;;;;;;11.60;5.10;;;;;;;18.15;56.07;101059.50;639758;1295;139705;-83
2022/10/13 12:04:25;;;;;;;14.50;5.50;;;;;;;18.61;54.64;101041.28;640428;1297;140657;-82
2022/10/13 12:19:30;;;;;;;14.60;7.10;;;;;;;19.20;53.70;101018.80;640914;1290;139580;-83
2022/10/13 12:34:35;;;;;;;9.30;4.10;;;;;;;20.05;52.72;100997.89;640642;1293;139363;-83
2022/10/13 12:49:39;;;;;;;9.40;3.90;;;;;;;20.66;51.95;100980.05;640300;1297;1259520;-83
2022/10/13 13:04:43;;;;;;;13.30;4.10;;;;;;;20.72;50.48;100966.52;640793;1289;140116;-82
2022/10/13 13:19:51;;;;;;;14.30;3.90;;;;;;;21.86;49.20;100952.02;640620;1291;141448;-81
2022/10/13 13:34:54;;;;;;;10.10;4.70;;;;;;;27.55;43.54;100934.70;640292;1296;139190;-81
2022/10/13 13:49:59;;;;;;;10.20;4.00;;;;;;;29.12;39.82;100922.52;640221;1289;140074;-81
2022/10/13 14:05:03;;;;;;;12.00;5.20;;;;;;;29.46;39.41;100926.09;641549;1291;139045;-82
2022/10/13 14:20:08;;;;;;;8.80;4.80;;;;;;;29.75;39.02;100926.19;646993;1288;139819;-82
2022/10/13 14:35:12;;;;;;;13.00;5.90;;;;;;;28.96;39.05;100915.51;640737;1288;142333;-82
2022/10/13 14:50:16;;;;;;;15.00;5.90;;;;;;;27.86;40.30;100904.90;641034;1289;141369;-81
2022/10/13 15:05:21;;;;;;;16.80;6.10;;;;;;;23.02;44.76;100887.77;641212;1298;139075;-82
2022/10/13 15:20:24;;;;;;;21.30;11.80;;;;;;;22.09;47.48;100875.50;641267;1291;140952;-81
2022/10/13 15:35:31;;;;;;;42.70;24.10;;;;;;;22.78;47.53;100866.67;642236;1288;140162;-81
2022/10/13 15:50:38;;;;;;;27.80;16.30;;;;;;;18.96;50.55;100850.76;641869;1289;139439;-80
2022/10/13 16:05:44;;;;;;;54.80;24.60;;;;;;;16.61;54.52;100850.00;641173;1289;138703;-81
2022/10/13 16:20:48;;;;;;;112.20;44.40;;;;;;;15.28;57.91;100838.05;641014;1292;139571;-81
2022/10/13 16:36:04;;;;;;;122.20;63.20;;;;;;;14.42;60.26;100835.10;640443;1281;141425;-80
2022/10/13 16:51:13;;;;;;;262.70;82.60;;;;;;;13.85;61.74;100834.04;640408;1281;138885;-80
2022/10/13 17:06:18;;;;;;;112.40;49.80;;;;;;;13.21;63.70;100840.71;640918;1288;139589;-80
2022/10/13 17:21:30;;;;;;;90.70;38.70;;;;;;;12.84;64.77;100830.48;639761;1282;139213;-81
2022/10/13 17:36:34;;;;;;;86.70;38.20;;;;;;;12.40;66.21;100824.36;640427;1305;138708;-81
2022/10/13 17:51:45;;;;;;;191.10;85.60;;;;;;;12.08;67.15;100822.94;639805;1290;138876;-81
2022/10/13 18:06:49;;;;;;;339.60;134.70;;;;;;;11.79;68.61;100819.73;640302;1308;139802;-81
2022/10/13 18:21:54;;;;;;;212.00;89.40;;;;;;;11.44;69.54;100821.06;640043;1298;139105;-81
2022/10/13 18:36:59;;;;;;;51.70;27.20;;;;;;;11.19;70.30;100816.15;640840;1297;139736;-82
2022/10/13 18:52:02;;;;;;;78.50;33.90;;;;;;;10.86;71.86;100802.64;641776;1288;140495;-81
2022/10/13 19:07:06;;;;;;;30.00;17.40;;;;;;;10.71;72.78;100794.43;640915;1305;138598;-81
2022/10/13 19:22:11;;;;;;;45.70;21.30;;;;;;;10.65;73.85;100791.41;640768;1306;138710;-80
2022/10/13 19:37:16;;;;;;;27.20;14.00;;;;;;;10.67;74.43;100779.20;640433;1288;139195;-82
2022/10/13 19:52:23;;;;;;;25.90;13.50;;;;;;;10.74;76.42;100777.03;640582;1302;139136;-81
2022/10/13 20:07:28;;;;;;;29.80;15.90;;;;;;;10.73;77.47;100778.00;639444;1296;139220;-81
2022/10/13 20:22:32;;;;;;;31.90;15.50;;;;;;;10.67;79.54;100772.21;640917;1297;139651;-80
2022/10/13 20:37:36;;;;;;;28.00;14.60;;;;;;;10.59;80.78;100769.46;641160;1294;139761;-81
2022/10/13 20:52:39;;;;;;;24.30;12.50;;;;;;;10.52;81.82;100758.33;640115;1289;139530;-81
2022/10/13 21:07:43;;;;;;;24.00;13.10;;;;;;;10.50;82.29;100744.67;640515;1307;139322;-82
2022/10/13 21:22:46;;;;;;;29.90;12.90;;;;;;;10.44;82.72;100734.52;640129;1298;139062;-81
2022/10/13 21:37:49;;;;;;;26.30;13.70;;;;;;;10.33;84.14;100739.52;645485;1305;139181;-80
2022/10/13 21:52:53;;;;;;;34.40;16.80;;;;;;;10.32;84.01;100733.36;640076;1298;139190;-81
2022/10/13 22:07:58;;;;;;;24.20;11.50;;;;;;;10.20;84.22;100723.46;641782;1294;139117;-80
2022/10/13 22:23:02;;;;;;;41.40;19.10;;;;;;;10.09;84.39;100713.13;640914;1296;139205;-81
2022/10/13 22:38:05;;;;;;;32.50;17.50;;;;;;;9.88;82.90;100708.27;639821;1288;139956;-81
2022/10/13 22:53:08;;;;;;;37.40;17.60;;;;;;;9.65;82.68;100709.00;639824;1312;139049;-81
2022/10/13 23:08:11;;;;;;;23.90;11.80;;;;;;;9.64;83.69;100706.44;639694;1291;139069;-81
2022/10/13 23:23:14;;;;;;;28.90;13.90;;;;;;;9.65;84.01;100700.97;640580;1305;140571;-81
2022/10/13 23:38:18;;;;;;;29.50;14.80;;;;;;;9.55;83.73;100696.31;639772;1299;139291;-81
2022/10/13 23:53:22;;;;;;;29.60;15.50;;;;;;;9.42;84.08;100685.77;640478;1299;140279;-81
